createdAt,value
2018-07-03T00:00:47.749Z,947.68
2018-07-03T00:01:47.654Z,947.64
2018-07-03T00:02:47.651Z,947.68
2018-07-03T00:03:47.473Z,947.65
2018-07-03T00:04:47.410Z,947.64
2018-07-03T00:05:47.291Z,947.66
2018-07-03T00:06:47.191Z,947.60
2018-07-03T00:07:47.097Z,947.59
2018-07-03T00:08:47.010Z,947.57
2018-07-03T00:09:47.038Z,947.54
2018-07-03T00:10:46.822Z,947.55
2018-07-03T00:11:46.729Z,947.58
2018-07-03T00:12:46.634Z,947.58
2018-07-03T00:13:46.540Z,947.56
2018-07-03T00:14:46.477Z,947.60
2018-07-03T00:15:46.354Z,947.56
2018-07-03T00:16:46.352Z,947.59
2018-07-03T00:17:46.171Z,947.59
2018-07-03T00:18:46.076Z,947.60
2018-07-03T00:19:46.010Z,947.55
2018-07-03T00:20:45.891Z,947.56
2018-07-03T00:21:45.794Z,947.59
2018-07-03T00:22:45.700Z,947.58
2018-07-03T00:23:45.701Z,947.60
2018-07-03T00:24:45.548Z,947.58
2018-07-03T00:25:45.424Z,947.61
2018-07-03T00:26:45.327Z,947.62
2018-07-03T00:27:45.236Z,947.59
2018-07-03T00:28:45.145Z,947.63
2018-07-03T00:29:45.087Z,947.64
2018-07-03T00:30:45.047Z,947.60
2018-07-03T00:31:44.864Z,947.64
2018-07-03T00:32:44.769Z,947.62
2018-07-03T00:33:44.673Z,947.62
2018-07-03T00:34:44.611Z,947.62
2018-07-03T00:35:44.487Z,947.64
2018-07-03T00:36:44.396Z,947.63
2018-07-03T00:37:44.390Z,947.64
2018-07-03T00:38:44.210Z,947.64
2018-07-03T00:39:44.145Z,947.62
2018-07-03T00:40:44.020Z,947.60
2018-07-03T00:41:43.928Z,947.61
2018-07-03T00:42:43.832Z,947.62
2018-07-03T00:43:43.737Z,947.57
2018-07-03T00:44:43.768Z,947.54
2018-07-03T00:45:43.549Z,947.54
2018-07-03T00:46:43.461Z,947.53
2018-07-03T00:47:43.365Z,947.52
2018-07-03T00:48:43.270Z,947.50
2018-07-03T00:49:43.208Z,947.50
2018-07-03T00:50:43.204Z,947.51
2018-07-03T00:51:42.990Z,947.49
2018-07-03T00:52:42.900Z,947.50
2018-07-03T00:53:42.802Z,947.49
2018-07-03T00:54:42.738Z,947.45
2018-07-03T00:55:42.616Z,947.48
2018-07-03T00:56:42.526Z,947.47
2018-07-03T00:57:42.432Z,947.47
2018-07-03T00:58:42.426Z,947.47
2018-07-03T00:59:42.273Z,947.45
2018-07-03T01:00:42.147Z,947.49
2018-07-03T01:01:42.052Z,947.46
2018-07-03T01:02:41.960Z,947.49
2018-07-03T01:03:41.865Z,947.49
2018-07-03T01:04:41.806Z,947.45
2018-07-03T01:05:41.679Z,947.46
2018-07-03T01:06:41.584Z,947.46
2018-07-03T01:07:41.490Z,947.42
2018-07-03T01:08:41.396Z,947.42
2018-07-03T01:09:41.350Z,947.44
2018-07-03T01:10:41.212Z,947.42
2018-07-03T01:11:41.117Z,947.42
2018-07-03T01:12:41.024Z,947.43
2018-07-03T01:13:40.932Z,947.43
2018-07-03T01:14:40.839Z,947.41
2018-07-03T01:15:40.772Z,947.41
2018-07-03T01:16:40.649Z,947.38
2018-07-03T01:17:40.552Z,947.39
2018-07-03T01:18:40.462Z,947.41
2018-07-03T01:19:40.397Z,947.41
2018-07-03T01:20:40.269Z,947.45
2018-07-03T01:21:40.177Z,947.44
2018-07-03T01:22:40.084Z,947.40
2018-07-03T01:23:39.991Z,947.42
2018-07-03T01:24:39.897Z,947.44
2018-07-03T01:25:39.833Z,947.41
2018-07-03T01:26:39.708Z,947.41
2018-07-03T01:27:39.614Z,947.42
2018-07-03T01:28:39.523Z,947.42
2018-07-03T01:29:39.428Z,947.38
2018-07-03T01:30:39.366Z,947.44
2018-07-03T01:31:39.239Z,947.45
2018-07-03T01:32:39.147Z,947.49
2018-07-03T01:33:39.055Z,947.45
2018-07-03T01:34:38.959Z,947.46
2018-07-03T01:35:38.894Z,947.46
2018-07-03T01:36:38.771Z,947.43
2018-07-03T01:37:38.677Z,947.41
2018-07-03T01:38:38.585Z,947.40
2018-07-03T01:39:38.486Z,947.42
2018-07-03T01:40:38.424Z,947.42
2018-07-03T01:41:38.302Z,947.35
2018-07-03T01:42:38.210Z,947.40
2018-07-03T01:43:38.114Z,947.37
2018-07-03T01:44:38.020Z,947.37
2018-07-03T01:45:37.960Z,947.37
2018-07-03T01:46:37.834Z,947.38
2018-07-03T01:47:37.741Z,947.37
2018-07-03T01:48:37.645Z,947.41
2018-07-03T01:49:37.570Z,947.41
2018-07-03T01:50:37.491Z,947.45
2018-07-03T01:51:37.364Z,947.41
2018-07-03T01:52:37.273Z,947.45
2018-07-03T01:53:37.178Z,947.43
2018-07-03T01:54:37.086Z,947.42
2018-07-03T01:55:37.026Z,947.45
2018-07-03T01:56:36.900Z,947.41
2018-07-03T01:57:36.804Z,947.41
2018-07-03T01:58:36.713Z,947.36
2018-07-03T01:59:36.620Z,947.39
2018-07-03T02:00:36.554Z,947.39
2018-07-03T02:01:36.430Z,947.40
2018-07-03T02:02:36.638Z,947.38
2018-07-03T02:03:36.243Z,947.35
2018-07-03T02:04:36.150Z,947.39
2018-07-03T02:05:36.088Z,947.35
2018-07-03T02:06:35.964Z,947.32
2018-07-03T02:07:35.868Z,947.33
2018-07-03T02:08:35.785Z,947.27
2018-07-03T02:09:35.685Z,947.25
2018-07-03T02:10:35.630Z,947.28
2018-07-03T02:11:35.498Z,947.26
2018-07-03T02:12:35.404Z,947.22
2018-07-03T02:13:35.310Z,947.22
2018-07-03T02:14:35.215Z,947.24
2018-07-03T02:15:35.157Z,947.23
2018-07-03T02:16:35.031Z,947.21
2018-07-03T02:17:34.936Z,947.23
2018-07-03T02:18:34.840Z,947.22
2018-07-03T02:19:34.748Z,947.24
2018-07-03T02:20:34.694Z,947.27
2018-07-03T02:21:34.559Z,947.24
2018-07-03T02:22:34.467Z,947.24
2018-07-03T02:23:34.373Z,947.25
2018-07-03T02:24:34.281Z,947.24
2018-07-03T02:25:34.220Z,947.26
2018-07-03T02:26:34.095Z,947.23
2018-07-03T02:27:34.000Z,947.23
2018-07-03T02:28:33.907Z,947.21
2018-07-03T02:29:33.817Z,947.28
2018-07-03T02:30:33.751Z,947.19
2018-07-03T02:31:33.631Z,947.27
2018-07-03T02:32:33.566Z,947.19
2018-07-03T02:33:33.440Z,947.21
2018-07-03T02:34:33.347Z,947.20
2018-07-03T02:35:33.254Z,947.22
2018-07-03T02:36:33.160Z,947.20
2018-07-03T02:37:33.096Z,947.17
2018-07-03T02:38:32.976Z,947.18
2018-07-03T02:39:32.894Z,947.14
2018-07-03T02:40:32.784Z,947.17
2018-07-03T02:41:32.693Z,947.15
2018-07-03T02:42:32.630Z,947.16
2018-07-03T02:43:32.597Z,947.16
2018-07-03T02:44:32.409Z,947.17
2018-07-03T02:45:32.316Z,947.12
2018-07-03T02:46:32.220Z,947.13
2018-07-03T02:47:32.132Z,947.11
2018-07-03T02:48:32.067Z,947.13
2018-07-03T02:49:31.954Z,947.16
2018-07-03T02:50:31.936Z,947.16
2018-07-03T02:51:31.754Z,947.17
2018-07-03T02:52:31.662Z,947.14
2018-07-03T02:53:31.599Z,947.12
2018-07-03T02:54:31.473Z,947.18
2018-07-03T02:55:31.377Z,947.18
2018-07-03T02:56:31.284Z,947.20
2018-07-03T02:57:31.280Z,947.20
2018-07-03T02:58:31.132Z,947.21
2018-07-03T02:59:31.006Z,947.24
2018-07-03T03:00:30.911Z,947.27
2018-07-03T03:01:30.815Z,947.22
2018-07-03T03:02:30.722Z,947.22
2018-07-03T03:03:30.661Z,947.21
2018-07-03T03:04:30.624Z,947.22
2018-07-03T03:05:30.440Z,947.20
2018-07-03T03:06:30.343Z,947.17
2018-07-03T03:07:30.254Z,947.21
2018-07-03T03:08:30.192Z,947.17
2018-07-03T03:09:30.083Z,947.21
2018-07-03T03:10:29.972Z,947.21
2018-07-03T03:11:29.972Z,947.18
2018-07-03T03:12:29.806Z,947.23
2018-07-03T03:13:29.725Z,947.22
2018-07-03T03:14:29.593Z,947.25
2018-07-03T03:15:29.502Z,947.25
2018-07-03T03:16:29.409Z,947.24
2018-07-03T03:17:29.312Z,947.24
2018-07-03T03:18:29.344Z,947.22
2018-07-03T03:19:29.130Z,947.20
2018-07-03T03:20:29.035Z,947.21
2018-07-03T03:21:28.941Z,947.19
2018-07-03T03:22:28.873Z,947.24
2018-07-03T03:23:28.787Z,947.22
2018-07-03T03:24:28.657Z,947.19
2018-07-03T03:25:28.653Z,947.18
2018-07-03T03:26:28.470Z,947.23
2018-07-03T03:27:28.376Z,947.19
2018-07-03T03:28:28.315Z,947.21
2018-07-03T03:29:28.190Z,947.24
2018-07-03T03:30:28.096Z,947.24
2018-07-03T03:31:28.003Z,947.27
2018-07-03T03:32:28.003Z,947.25
2018-07-03T03:33:27.849Z,947.24
2018-07-03T03:34:27.722Z,947.21
2018-07-03T03:35:27.628Z,947.19
2018-07-03T03:36:27.539Z,947.20
2018-07-03T03:37:27.442Z,947.20
2018-07-03T03:38:27.379Z,947.18
2018-07-03T03:39:27.347Z,947.21
2018-07-03T03:40:27.166Z,947.19
2018-07-03T03:41:27.066Z,947.19
2018-07-03T03:42:26.969Z,947.23
2018-07-03T03:43:26.910Z,947.25
2018-07-03T03:44:26.784Z,947.23
2018-07-03T03:45:26.689Z,947.29
2018-07-03T03:46:26.686Z,947.26
2018-07-03T03:47:26.508Z,947.22
2018-07-03T03:48:26.443Z,947.28
2018-07-03T03:49:26.319Z,947.24
2018-07-03T03:50:26.221Z,947.22
2018-07-03T03:51:26.131Z,947.25
2018-07-03T03:52:26.037Z,947.28
2018-07-03T03:53:26.064Z,947.25
2018-07-03T03:54:25.847Z,947.28
2018-07-03T03:55:25.758Z,947.29
2018-07-03T03:56:25.666Z,947.33
2018-07-03T03:57:25.569Z,947.28
2018-07-03T03:58:25.507Z,947.31
2018-07-03T03:59:25.382Z,947.30
2018-07-03T04:00:25.379Z,947.33
2018-07-03T04:01:25.197Z,947.34
2018-07-03T04:02:25.098Z,947.37
2018-07-03T04:03:25.043Z,947.42
2018-07-03T04:04:24.932Z,947.39
2018-07-03T04:05:24.820Z,947.38
2018-07-03T04:06:24.728Z,947.44
2018-07-03T04:07:24.637Z,947.44
2018-07-03T04:08:24.577Z,947.43
2018-07-03T04:09:24.444Z,947.44
2018-07-03T04:10:24.352Z,947.42
2018-07-03T04:11:24.258Z,947.43
2018-07-03T04:12:24.163Z,947.40
2018-07-03T04:13:24.109Z,947.46
2018-07-03T04:14:23.976Z,947.42
2018-07-03T04:15:23.884Z,947.47
2018-07-03T04:16:23.794Z,947.47
2018-07-03T04:17:23.698Z,947.49
2018-07-03T04:18:23.604Z,947.50
2018-07-03T04:19:23.541Z,947.50
2018-07-03T04:20:23.418Z,947.46
2018-07-03T04:21:23.324Z,947.50
2018-07-03T04:22:23.232Z,947.54
2018-07-03T04:23:23.140Z,947.52
2018-07-03T04:24:23.076Z,947.53
2018-07-03T04:25:22.953Z,947.52
2018-07-03T04:26:22.858Z,947.47
2018-07-03T04:27:22.765Z,947.51
2018-07-03T04:28:22.674Z,947.56
2018-07-03T04:29:22.612Z,947.52
2018-07-03T04:30:22.485Z,947.53
2018-07-03T04:31:22.393Z,947.53
2018-07-03T04:32:22.302Z,947.56
2018-07-03T04:33:22.209Z,947.57
2018-07-03T04:34:22.147Z,947.57
2018-07-03T04:35:22.020Z,947.56
2018-07-03T04:36:21.931Z,947.55
2018-07-03T04:37:21.836Z,947.57
2018-07-03T04:38:21.743Z,947.58
2018-07-03T04:39:21.680Z,947.57
2018-07-03T04:40:21.554Z,947.60
2018-07-03T04:41:21.518Z,947.60
2018-07-03T04:42:21.374Z,947.58
2018-07-03T04:43:21.279Z,947.59
2018-07-03T04:44:21.220Z,947.57
2018-07-03T04:45:21.097Z,947.59
2018-07-03T04:46:21.003Z,947.64
2018-07-03T04:47:20.912Z,947.61
2018-07-03T04:48:20.820Z,947.59
2018-07-03T04:49:20.764Z,947.64
2018-07-03T04:50:20.636Z,947.61
2018-07-03T04:51:20.544Z,947.64
2018-07-03T04:52:20.452Z,947.66
2018-07-03T04:53:20.418Z,947.65
2018-07-03T04:54:20.299Z,947.65
2018-07-03T04:55:20.175Z,947.66
2018-07-03T04:56:20.082Z,947.62
2018-07-03T04:57:19.995Z,947.63
2018-07-03T04:58:19.901Z,947.64
2018-07-03T04:59:19.843Z,947.64
2018-07-03T05:00:19.719Z,947.64
2018-07-03T05:01:19.629Z,947.67
2018-07-03T05:02:19.547Z,947.69
2018-07-03T05:03:19.441Z,947.69
2018-07-03T05:04:19.382Z,947.69
2018-07-03T05:05:19.258Z,947.68
2018-07-03T05:06:19.167Z,947.71
2018-07-03T05:07:19.074Z,947.71
2018-07-03T05:08:18.985Z,947.74
2018-07-03T05:09:18.925Z,947.80
2018-07-03T05:10:18.799Z,947.76
2018-07-03T05:11:18.708Z,947.81
2018-07-03T05:12:18.620Z,947.76
2018-07-03T05:13:18.532Z,947.80
2018-07-03T05:14:18.473Z,947.82
2018-07-03T05:15:18.346Z,947.81
2018-07-03T05:16:18.257Z,947.81
2018-07-03T05:17:18.166Z,947.82
2018-07-03T05:18:18.072Z,947.81
2018-07-03T05:19:18.014Z,947.82
2018-07-03T05:20:17.893Z,947.87
2018-07-03T05:21:17.803Z,947.87
2018-07-03T05:22:17.712Z,947.90
2018-07-03T05:23:17.725Z,947.88
2018-07-03T05:24:17.563Z,947.88
2018-07-03T05:25:17.437Z,947.89
2018-07-03T05:26:17.349Z,947.90
2018-07-03T05:27:17.254Z,947.90
2018-07-03T05:28:17.166Z,947.94
2018-07-03T05:29:17.108Z,947.92
2018-07-03T05:30:17.075Z,947.93
2018-07-03T05:31:16.894Z,947.94
2018-07-03T05:32:16.806Z,947.92
2018-07-03T05:33:16.712Z,947.96
2018-07-03T05:34:16.675Z,947.99
2018-07-03T05:35:16.534Z,948.01
2018-07-03T05:36:16.443Z,948.00
2018-07-03T05:37:16.486Z,948.02
2018-07-03T05:38:16.263Z,948.01
2018-07-03T05:39:16.206Z,948.09
2018-07-03T05:40:16.086Z,948.08
2018-07-03T05:41:15.990Z,948.10
2018-07-03T05:42:15.900Z,948.08
2018-07-03T05:43:15.811Z,948.11
2018-07-03T05:44:15.828Z,948.12
2018-07-03T05:45:15.632Z,948.11
2018-07-03T05:46:15.540Z,948.17
2018-07-03T05:47:15.452Z,948.19
2018-07-03T05:48:15.362Z,948.13
2018-07-03T05:49:15.273Z,948.15
2018-07-03T05:50:15.216Z,948.15
2018-07-03T05:51:15.185Z,948.18
2018-07-03T05:52:15.006Z,948.18
2018-07-03T05:53:14.913Z,948.17
2018-07-03T05:54:14.825Z,948.22
2018-07-03T05:55:14.764Z,948.27
2018-07-03T05:56:14.654Z,948.22
2018-07-03T05:57:14.557Z,948.24
2018-07-03T05:58:14.623Z,948.24
2018-07-03T05:59:14.381Z,948.22
2018-07-03T06:00:14.321Z,948.25
2018-07-03T06:01:14.201Z,948.21
2018-07-03T06:02:14.115Z,948.19
2018-07-03T06:03:14.023Z,948.23
2018-07-03T06:04:13.936Z,948.28
2018-07-03T06:05:13.949Z,948.27
2018-07-03T06:06:13.758Z,948.23
2018-07-03T06:07:13.666Z,948.27
2018-07-03T06:08:13.581Z,948.29
2018-07-03T06:09:13.549Z,948.27
2018-07-03T06:10:13.435Z,948.24
2018-07-03T06:11:13.315Z,948.27
2018-07-03T06:12:13.356Z,948.30
2018-07-03T06:13:13.136Z,948.33
2018-07-03T06:14:13.051Z,948.27
2018-07-03T06:15:12.993Z,948.35
2018-07-03T06:16:12.869Z,948.40
2018-07-03T06:17:12.782Z,948.46
2018-07-03T06:18:12.694Z,948.41
2018-07-03T06:19:12.604Z,948.33
2018-07-03T06:20:12.550Z,948.31
2018-07-03T06:21:12.568Z,948.32
2018-07-03T06:22:12.558Z,948.34
2018-07-03T06:23:12.253Z,948.38
2018-07-03T06:24:12.164Z,948.39
2018-07-03T06:25:12.105Z,948.37
2018-07-03T06:26:11.986Z,948.36
2018-07-03T06:27:11.902Z,948.40
2018-07-03T06:28:11.808Z,948.41
2018-07-03T06:29:11.723Z,948.39
2018-07-03T06:30:11.664Z,948.39
2018-07-03T06:31:11.544Z,948.41
2018-07-03T06:32:11.456Z,948.42
2018-07-03T06:33:11.366Z,948.37
2018-07-03T06:34:11.278Z,948.40
2018-07-03T06:35:11.222Z,948.40
2018-07-03T06:36:11.103Z,948.42
2018-07-03T06:37:11.024Z,948.43
2018-07-03T06:38:10.925Z,948.54
2018-07-03T06:39:10.838Z,948.73
2018-07-03T06:40:10.784Z,949.00
2018-07-03T06:41:10.662Z,949.39
2018-07-03T06:42:10.571Z,949.89
2018-07-03T06:43:10.485Z,949.87
2018-07-03T06:44:10.399Z,949.93
2018-07-03T06:45:10.341Z,949.93
2018-07-03T06:46:10.224Z,950.03
2018-07-03T06:47:10.136Z,950.32
2018-07-03T06:48:10.048Z,950.89
2018-07-03T06:49:09.959Z,951.28
2018-07-03T06:50:09.902Z,951.76
2018-07-03T06:51:09.787Z,952.53
2018-07-03T06:52:09.702Z,954.11
2018-07-03T06:53:09.615Z,954.01
2018-07-03T06:54:09.532Z,951.44
2018-07-03T06:55:09.476Z,950.35
2018-07-03T06:56:09.360Z,950.33
2018-07-03T06:57:09.272Z,950.32
2018-07-03T06:58:09.188Z,950.26
2018-07-03T06:59:09.103Z,950.26
2018-07-03T07:00:09.051Z,950.23
2018-07-03T07:01:08.932Z,950.20
2018-07-03T07:02:08.848Z,950.23
2018-07-03T07:03:08.762Z,950.28
2018-07-03T07:04:08.680Z,950.32
2018-07-03T07:05:08.628Z,950.32
2018-07-03T07:06:08.515Z,950.36
2018-07-03T07:07:08.431Z,950.41
2018-07-03T07:08:08.352Z,950.41
2018-07-03T07:09:08.367Z,950.43
2018-07-03T07:10:08.213Z,950.40
2018-07-03T07:11:08.098Z,950.33
2018-07-03T07:12:08.024Z,950.36
2018-07-03T07:13:07.940Z,950.39
2018-07-03T07:14:07.855Z,950.57
2018-07-03T07:15:07.856Z,950.89
2018-07-03T07:16:07.690Z,951.20
2018-07-03T07:17:07.609Z,951.29
2018-07-03T07:18:07.529Z,951.18
2018-07-03T07:19:07.447Z,951.27
2018-07-03T07:20:07.368Z,951.62
2018-07-03T07:21:07.319Z,951.65
2018-07-03T07:22:07.319Z,951.10
2018-07-03T07:23:07.159Z,950.84
2018-07-03T07:24:07.047Z,950.87
2018-07-03T07:25:06.967Z,951.33
2018-07-03T07:26:06.914Z,952.36
2018-07-03T07:27:06.809Z,952.65
2018-07-03T07:28:06.726Z,952.00
2018-07-03T07:29:06.735Z,951.60
2018-07-03T07:30:06.564Z,953.00
2018-07-03T07:31:06.518Z,955.00
2018-07-03T07:32:06.411Z,955.33
2018-07-03T07:33:06.331Z,953.76
2018-07-03T07:34:06.245Z,950.15
2018-07-03T07:35:06.172Z,950.21
2018-07-03T07:36:06.209Z,953.94
2018-07-03T07:37:06.008Z,954.43
2018-07-03T07:38:05.933Z,954.51
2018-07-03T07:39:05.853Z,954.13
2018-07-03T07:40:05.775Z,953.42
2018-07-03T07:41:05.729Z,953.56
2018-07-03T07:42:05.616Z,953.94
2018-07-03T07:43:05.622Z,953.77
2018-07-03T07:44:05.458Z,953.22
2018-07-03T07:45:05.383Z,953.68
2018-07-03T07:46:05.332Z,954.22
2018-07-03T07:47:05.227Z,954.44
2018-07-03T07:48:05.147Z,953.63
2018-07-03T07:49:05.066Z,953.18
2018-07-03T07:50:05.080Z,953.82
2018-07-03T07:51:04.943Z,953.63
2018-07-03T07:52:04.834Z,952.85
2018-07-03T07:53:04.756Z,952.63
2018-07-03T07:54:04.680Z,953.05
2018-07-03T07:55:04.599Z,954.14
2018-07-03T07:56:04.556Z,955.22
2018-07-03T07:57:04.548Z,955.38
2018-07-03T07:58:04.361Z,955.37
2018-07-03T07:59:04.287Z,954.94
2018-07-03T08:00:04.209Z,954.50
2018-07-03T08:01:04.160Z,954.16
2018-07-03T08:02:04.054Z,954.34
2018-07-03T08:03:03.972Z,954.92
2018-07-03T08:04:03.998Z,954.89
2018-07-03T08:05:03.816Z,954.52
2018-07-03T08:06:03.774Z,954.42
2018-07-03T08:07:03.663Z,955.26
2018-07-03T08:08:03.587Z,955.69
2018-07-03T08:09:03.521Z,957.09
2018-07-03T08:10:03.433Z,957.31
2018-07-03T08:11:03.484Z,956.68
2018-07-03T08:12:03.275Z,955.72
2018-07-03T08:13:03.197Z,955.42
2018-07-03T08:14:03.119Z,955.26
2018-07-03T08:15:03.043Z,954.99
2018-07-03T08:16:02.995Z,955.23
2018-07-03T08:17:02.890Z,955.27
2018-07-03T08:18:02.906Z,955.27
2018-07-03T08:19:02.777Z,954.64
2018-07-03T08:20:02.652Z,954.37
2018-07-03T08:21:02.603Z,954.68
2018-07-03T08:22:02.494Z,953.67
2018-07-03T08:23:02.418Z,952.16
2018-07-03T08:24:02.344Z,951.35
2018-07-03T08:25:02.266Z,951.02
2018-07-03T08:26:02.221Z,950.79
2018-07-03T08:27:02.111Z,950.62
2018-07-03T08:28:02.032Z,950.53
2018-07-03T08:29:01.953Z,950.50
2018-07-03T08:30:01.884Z,950.48
2018-07-03T08:31:01.826Z,950.50
2018-07-03T08:32:01.722Z,950.31
2018-07-03T08:33:01.639Z,950.23
2018-07-03T08:34:01.575Z,950.12
2018-07-03T08:35:01.489Z,950.17
2018-07-03T08:36:01.438Z,950.10
2018-07-03T08:37:01.330Z,950.19
2018-07-03T08:38:01.254Z,950.11
2018-07-03T08:39:01.175Z,950.04
2018-07-03T08:40:01.098Z,950.05
2018-07-03T08:41:01.048Z,950.05
2018-07-03T08:42:00.937Z,950.05
2018-07-03T08:43:00.862Z,950.09
2018-07-03T08:44:00.786Z,950.10
2018-07-03T08:45:00.708Z,950.08
2018-07-03T08:46:00.661Z,950.04
2018-07-03T08:47:00.552Z,950.04
2018-07-03T08:48:00.471Z,950.12
2018-07-03T08:49:00.396Z,950.23
2018-07-03T08:50:00.317Z,950.21
2018-07-03T08:51:00.241Z,950.18
2018-07-03T08:52:00.211Z,950.15
2018-07-03T08:53:00.089Z,950.13
2018-07-03T08:54:00.010Z,950.08
2018-07-03T08:54:59.971Z,950.12
2018-07-03T08:55:59.857Z,950.20
2018-07-03T08:56:59.802Z,950.25
2018-07-03T08:57:59.698Z,950.11
2018-07-03T08:58:59.618Z,950.09
2018-07-03T08:59:59.538Z,950.17
2018-07-03T09:00:59.466Z,950.19
2018-07-03T09:01:59.420Z,950.21
2018-07-03T09:02:59.308Z,950.28
2018-07-03T09:03:59.230Z,950.29
2018-07-03T09:04:59.153Z,950.28
2018-07-03T09:05:59.076Z,950.26
2018-07-03T09:06:59.028Z,950.29
2018-07-03T09:07:58.919Z,950.42
2018-07-03T09:08:58.841Z,950.52
2018-07-03T09:09:58.761Z,950.53
2018-07-03T09:10:58.685Z,950.47
2018-07-03T09:11:58.637Z,950.54
2018-07-03T09:12:58.526Z,950.77
2018-07-03T09:13:58.451Z,950.94
2018-07-03T09:14:58.375Z,950.92
2018-07-03T09:15:58.295Z,951.24
2018-07-03T09:16:58.251Z,951.12
2018-07-03T09:17:58.188Z,950.83
2018-07-03T09:18:58.067Z,951.03
2018-07-03T09:19:57.987Z,951.46
2018-07-03T09:20:57.920Z,951.47
2018-07-03T09:21:57.864Z,951.18
2018-07-03T09:22:57.752Z,951.07
2018-07-03T09:23:57.680Z,951.11
2018-07-03T09:24:57.605Z,951.18
2018-07-03T09:25:57.522Z,950.94
2018-07-03T09:26:57.566Z,950.64
2018-07-03T09:27:57.365Z,950.76
2018-07-03T09:28:57.294Z,951.27
2018-07-03T09:29:57.211Z,951.15
2018-07-03T09:30:57.132Z,950.50
2018-07-03T09:31:57.087Z,950.16
2018-07-03T09:32:56.977Z,951.21
2018-07-03T09:33:57.008Z,951.99
2018-07-03T09:34:56.825Z,951.28
2018-07-03T09:35:56.746Z,950.84
2018-07-03T09:36:56.701Z,950.96
2018-07-03T09:37:56.594Z,951.19
2018-07-03T09:38:56.520Z,951.35
2018-07-03T09:39:56.436Z,951.08
2018-07-03T09:40:56.449Z,950.70
2018-07-03T09:41:56.312Z,950.82
2018-07-03T09:42:56.205Z,950.77
2018-07-03T09:43:56.130Z,951.23
2018-07-03T09:44:56.049Z,950.95
2018-07-03T09:45:55.984Z,950.17
2018-07-03T09:46:55.929Z,950.14
2018-07-03T09:47:55.910Z,950.47
2018-07-03T09:48:55.748Z,950.61
2018-07-03T09:49:55.661Z,950.04
2018-07-03T09:50:55.583Z,949.45
2018-07-03T09:51:55.540Z,949.67
2018-07-03T09:52:55.430Z,950.04
2018-07-03T09:53:55.350Z,950.13
2018-07-03T09:54:55.413Z,949.81
2018-07-03T09:55:55.198Z,949.43
2018-07-03T09:56:55.151Z,949.34
2018-07-03T09:57:55.041Z,949.18
2018-07-03T09:58:54.963Z,948.81
2018-07-03T09:59:54.886Z,948.81
2018-07-03T10:00:54.812Z,948.65
2018-07-03T10:01:54.852Z,948.21
2018-07-03T10:02:54.662Z,948.19
2018-07-03T10:03:54.579Z,948.22
2018-07-03T10:04:54.503Z,948.10
2018-07-03T10:05:54.425Z,948.04
2018-07-03T10:06:54.381Z,948.18
2018-07-03T10:07:54.270Z,948.02
2018-07-03T10:08:54.289Z,947.95
2018-07-03T10:09:54.130Z,947.94
2018-07-03T10:10:54.040Z,947.91
2018-07-03T10:11:54.001Z,947.87
2018-07-03T10:12:53.889Z,947.92
2018-07-03T10:13:53.813Z,947.95
2018-07-03T10:14:53.729Z,947.90
2018-07-03T10:15:53.748Z,947.90
2018-07-03T10:16:53.606Z,947.86
2018-07-03T10:17:53.497Z,947.94
2018-07-03T10:18:53.488Z,947.94
2018-07-03T10:19:53.349Z,947.89
2018-07-03T10:20:53.268Z,947.89
2018-07-03T10:21:53.222Z,947.91
2018-07-03T10:22:53.217Z,947.95
2018-07-03T10:23:53.037Z,947.90
2018-07-03T10:24:52.957Z,947.95
2018-07-03T10:25:52.883Z,948.01
2018-07-03T10:26:52.809Z,947.96
2018-07-03T10:27:52.760Z,947.87
2018-07-03T10:28:52.649Z,947.83
2018-07-03T10:29:52.665Z,947.91
2018-07-03T10:30:52.493Z,948.02
2018-07-03T10:31:52.423Z,948.02
2018-07-03T10:32:52.383Z,948.08
2018-07-03T10:33:52.264Z,948.06
2018-07-03T10:34:52.202Z,948.05
2018-07-03T10:35:52.108Z,948.10
2018-07-03T10:36:52.033Z,948.09
2018-07-03T10:37:51.987Z,948.13
2018-07-03T10:38:51.877Z,948.20
2018-07-03T10:39:51.799Z,948.23
2018-07-03T10:40:51.727Z,948.20
2018-07-03T10:41:51.645Z,948.26
2018-07-03T10:42:51.600Z,948.32
2018-07-03T10:43:51.492Z,948.31
2018-07-03T10:44:51.413Z,948.37
2018-07-03T10:45:51.339Z,948.44
2018-07-03T10:46:51.259Z,948.32
2018-07-03T10:47:51.217Z,948.30
2018-07-03T10:48:51.125Z,948.35
2018-07-03T10:49:51.032Z,948.36
2018-07-03T10:50:50.952Z,948.38
2018-07-03T10:51:50.877Z,948.39
2018-07-03T10:52:50.830Z,948.37
2018-07-03T10:53:50.721Z,948.36
2018-07-03T10:54:50.643Z,948.36
2018-07-03T10:55:50.569Z,948.36
2018-07-03T10:56:50.492Z,948.39
2018-07-03T10:57:50.445Z,948.42
2018-07-03T10:58:50.340Z,948.40
2018-07-03T10:59:50.261Z,948.41
2018-07-03T11:00:50.181Z,948.40
2018-07-03T11:01:50.104Z,948.42
2018-07-03T11:02:50.059Z,948.41
2018-07-03T11:03:49.953Z,948.39
2018-07-03T11:04:49.876Z,948.46
2018-07-03T11:05:49.798Z,948.46
2018-07-03T11:06:49.726Z,948.41
2018-07-03T11:07:49.678Z,948.42
2018-07-03T11:08:49.566Z,948.42
2018-07-03T11:09:49.500Z,948.43
2018-07-03T11:10:49.417Z,948.47
2018-07-03T11:11:49.346Z,948.48
2018-07-03T11:12:49.296Z,948.50
2018-07-03T11:13:49.261Z,948.50
2018-07-03T11:14:49.109Z,948.48
2018-07-03T11:15:49.035Z,948.50
2018-07-03T11:16:48.958Z,948.49
2018-07-03T11:17:48.910Z,948.47
2018-07-03T11:18:48.801Z,948.48
2018-07-03T11:19:48.790Z,948.49
2018-07-03T11:20:48.651Z,948.49
2018-07-03T11:21:48.570Z,948.46
2018-07-03T11:22:48.533Z,948.48
2018-07-03T11:23:48.417Z,948.48
2018-07-03T11:24:48.341Z,948.51
2018-07-03T11:25:48.266Z,948.47
2018-07-03T11:26:48.188Z,948.53
2018-07-03T11:27:48.144Z,948.53
2018-07-03T11:28:48.037Z,948.53
2018-07-03T11:29:47.962Z,948.51
2018-07-03T11:30:47.880Z,948.58
2018-07-03T11:31:47.811Z,948.58
2018-07-03T11:32:47.765Z,948.55
2018-07-03T11:33:47.705Z,948.56
2018-07-03T11:34:47.581Z,948.51
2018-07-03T11:35:47.502Z,948.49
2018-07-03T11:36:47.421Z,948.43
2018-07-03T11:37:47.430Z,948.45
2018-07-03T11:38:47.275Z,948.40
2018-07-03T11:39:47.197Z,948.39
2018-07-03T11:40:47.117Z,948.39
2018-07-03T11:41:47.042Z,948.35
2018-07-03T11:42:46.996Z,948.39
2018-07-03T11:43:46.890Z,948.38
2018-07-03T11:44:46.866Z,948.36
2018-07-03T11:45:46.735Z,948.40
2018-07-03T11:46:46.659Z,948.42
2018-07-03T11:47:46.614Z,948.40
2018-07-03T11:48:46.507Z,948.39
2018-07-03T11:49:46.429Z,948.37
2018-07-03T11:50:46.354Z,948.39
2018-07-03T11:51:46.276Z,948.35
2018-07-03T11:52:46.298Z,948.35
2018-07-03T11:53:46.156Z,948.33
2018-07-03T11:54:46.048Z,948.30
2018-07-03T11:55:45.973Z,948.28
2018-07-03T11:56:45.895Z,948.29
2018-07-03T11:57:45.820Z,948.31
2018-07-03T11:58:45.769Z,948.36
2018-07-03T11:59:45.662Z,948.32
2018-07-03T12:00:45.587Z,948.33
2018-07-03T12:01:45.566Z,948.30
2018-07-03T12:02:45.441Z,948.25
2018-07-03T12:03:45.391Z,948.23
2018-07-03T12:04:45.280Z,948.29
2018-07-03T12:05:45.203Z,948.23
2018-07-03T12:06:45.134Z,948.27
2018-07-03T12:07:45.056Z,948.28
2018-07-03T12:08:45.009Z,948.28
2018-07-03T12:09:44.900Z,948.25
2018-07-03T12:10:44.822Z,948.24
2018-07-03T12:11:44.745Z,948.29
2018-07-03T12:12:44.668Z,948.25
2018-07-03T12:13:44.715Z,948.26
2018-07-03T12:14:44.516Z,948.23
2018-07-03T12:15:44.439Z,948.19
2018-07-03T12:16:44.367Z,948.21
2018-07-03T12:17:44.288Z,948.24
2018-07-03T12:18:44.274Z,948.21
2018-07-03T12:19:44.210Z,948.21
2018-07-03T12:20:44.144Z,948.23
2018-07-03T12:21:43.979Z,948.24
2018-07-03T12:22:43.906Z,948.22
2018-07-03T12:23:43.856Z,948.21
2018-07-03T12:24:43.748Z,948.22
2018-07-03T12:25:43.672Z,948.22
2018-07-03T12:26:43.596Z,948.21
2018-07-03T12:27:43.611Z,948.23